sensor_id;sensor_type;location;lat;lon;timestamp;P1;durP1;ratioP1;P2;durP2;ratioP2
70908;SDS011;58554;52.006;5.926;2023-05-19T00:00:09;10.02;;;4.55;;
70908;SDS011;58554;52.006;5.926;2023-05-19T00:02:40;9.07;;;4.50;;
70908;SDS011;58554;52.006;5.926;2023-05-19T00:05:09;9.63;;;4.15;;
70908;SDS011;58554;52.006;5.926;2023-05-19T00:07:37;9.77;;;4.47;;
70908;SDS011;58554;52.006;5.926;2023-05-19T00:10:05;7.30;;;4.20;;
70908;SDS011;58554;52.006;5.926;2023-05-19T00:12:34;7.70;;;4.07;;
70908;SDS011;58554;52.006;5.926;2023-05-19T00:15:03;9.73;;;4.67;;
70908;SDS011;58554;52.006;5.926;2023-05-19T00:17:32;8.37;;;4.50;;
70908;SDS011;58554;52.006;5.926;2023-05-19T00:20:01;8.02;;;4.50;;
70908;SDS011;58554;52.006;5.926;2023-05-19T00:22:28;12.32;;;4.60;;
70908;SDS011;58554;52.006;5.926;2023-05-19T00:24:54;7.97;;;4.20;;
70908;SDS011;58554;52.006;5.926;2023-05-19T00:27:21;9.23;;;4.68;;
70908;SDS011;58554;52.006;5.926;2023-05-19T00:29:47;9.23;;;4.47;;
70908;SDS011;58554;52.006;5.926;2023-05-19T00:32:13;8.20;;;3.97;;
70908;SDS011;58554;52.006;5.926;2023-05-19T00:34:40;9.23;;;4.43;;
70908;SDS011;58554;52.006;5.926;2023-05-19T00:37:09;8.17;;;4.40;;
70908;SDS011;58554;52.006;5.926;2023-05-19T00:39:36;8.57;;;4.03;;
70908;SDS011;58554;52.006;5.926;2023-05-19T00:42:02;10.53;;;4.40;;
70908;SDS011;58554;52.006;5.926;2023-05-19T00:44:30;9.13;;;4.67;;
70908;SDS011;58554;52.006;5.926;2023-05-19T00:46:56;6.03;;;4.00;;
70908;SDS011;58554;52.006;5.926;2023-05-19T00:49:23;9.30;;;4.50;;
70908;SDS011;58554;52.006;5.926;2023-05-19T00:51:49;9.38;;;4.65;;
70908;SDS011;58554;52.006;5.926;2023-05-19T00:54:19;8.30;;;4.33;;
70908;SDS011;58554;52.006;5.926;2023-05-19T00:56:46;11.85;;;4.40;;
70908;SDS011;58554;52.006;5.926;2023-05-19T00:59:13;8.50;;;4.40;;
70908;SDS011;58554;52.006;5.926;2023-05-19T01:01:39;10.37;;;3.97;;
70908;SDS011;58554;52.006;5.926;2023-05-19T01:04:06;8.02;;;4.38;;
70908;SDS011;58554;52.006;5.926;2023-05-19T01:06:32;9.05;;;4.65;;
70908;SDS011;58554;52.006;5.926;2023-05-19T01:09:00;8.10;;;4.27;;
70908;SDS011;58554;52.006;5.926;2023-05-19T01:11:29;8.57;;;4.03;;
70908;SDS011;58554;52.006;5.926;2023-05-19T01:13:55;9.73;;;4.53;;
70908;SDS011;58554;52.006;5.926;2023-05-19T01:16:23;9.13;;;4.55;;
70908;SDS011;58554;52.006;5.926;2023-05-19T01:19:00;8.25;;;4.40;;
70908;SDS011;58554;52.006;5.926;2023-05-19T01:21:54;10.90;;;4.28;;
70908;SDS011;58554;52.006;5.926;2023-05-19T01:28:12;11.50;;;4.15;;
70908;SDS011;58554;52.006;5.926;2023-05-19T01:30:58;8.57;;;4.13;;
70908;SDS011;58554;52.006;5.926;2023-05-19T01:33:27;8.68;;;4.40;;
70908;SDS011;58554;52.006;5.926;2023-05-19T01:35:57;8.23;;;4.70;;
70908;SDS011;58554;52.006;5.926;2023-05-19T01:38:26;10.50;;;4.43;;
70908;SDS011;58554;52.006;5.926;2023-05-19T01:40:55;9.43;;;4.72;;
70908;SDS011;58554;52.006;5.926;2023-05-19T01:43:23;10.20;;;4.43;;
70908;SDS011;58554;52.006;5.926;2023-05-19T01:45:52;9.00;;;4.40;;
70908;SDS011;58554;52.006;5.926;2023-05-19T01:48:23;8.83;;;4.33;;
70908;SDS011;58554;52.006;5.926;2023-05-19T01:50:51;8.77;;;4.77;;
70908;SDS011;58554;52.006;5.926;2023-05-19T01:53:18;9.65;;;4.75;;
70908;SDS011;58554;52.006;5.926;2023-05-19T01:55:46;8.90;;;4.60;;
70908;SDS011;58554;52.006;5.926;2023-05-19T01:58:20;8.88;;;4.75;;
70908;SDS011;58554;52.006;5.926;2023-05-19T02:01:05;7.75;;;4.60;;
70908;SDS011;58554;52.006;5.926;2023-05-19T02:03:45;7.70;;;4.00;;
70908;SDS011;58554;52.006;5.926;2023-05-19T02:06:34;8.60;;;4.30;;
70908;SDS011;58554;52.006;5.926;2023-05-19T02:09:10;8.25;;;4.32;;
70908;SDS011;58554;52.006;5.926;2023-05-19T02:11:45;9.88;;;4.68;;
70908;SDS011;58554;52.006;5.926;2023-05-19T02:14:20;9.43;;;4.60;;
70908;SDS011;58554;52.006;5.926;2023-05-19T02:16:55;9.55;;;4.65;;
70908;SDS011;58554;52.006;5.926;2023-05-19T02:19:26;10.15;;;5.00;;
70908;SDS011;58554;52.006;5.926;2023-05-19T02:21:56;9.90;;;4.47;;
70908;SDS011;58554;52.006;5.926;2023-05-19T02:24:23;9.23;;;4.83;;
70908;SDS011;58554;52.006;5.926;2023-05-19T02:26:49;11.98;;;5.22;;
70908;SDS011;58554;52.006;5.926;2023-05-19T02:29:18;11.50;;;5.30;;
70908;SDS011;58554;52.006;5.926;2023-05-19T02:31:44;8.70;;;5.25;;
70908;SDS011;58554;52.006;5.926;2023-05-19T02:34:11;10.53;;;4.93;;
70908;SDS011;58554;52.006;5.926;2023-05-19T02:36:41;9.70;;;4.80;;
70908;SDS011;58554;52.006;5.926;2023-05-19T02:39:07;9.43;;;5.10;;
70908;SDS011;58554;52.006;5.926;2023-05-19T02:41:34;11.10;;;5.30;;
70908;SDS011;58554;52.006;5.926;2023-05-19T02:44:01;9.83;;;5.27;;
70908;SDS011;58554;52.006;5.926;2023-05-19T02:46:27;10.38;;;4.97;;
70908;SDS011;58554;52.006;5.926;2023-05-19T02:48:54;9.50;;;5.57;;
70908;SDS011;58554;52.006;5.926;2023-05-19T02:51:20;11.30;;;5.50;;
70908;SDS011;58554;52.006;5.926;2023-05-19T02:53:49;12.25;;;5.53;;
70908;SDS011;58554;52.006;5.926;2023-05-19T02:56:16;9.80;;;5.20;;
70908;SDS011;58554;52.006;5.926;2023-05-19T02:58:42;13.10;;;5.45;;
70908;SDS011;58554;52.006;5.926;2023-05-19T03:01:09;9.95;;;6.05;;
70908;SDS011;58554;52.006;5.926;2023-05-19T03:03:35;8.52;;;4.88;;
70908;SDS011;58554;52.006;5.926;2023-05-19T03:06:02;10.77;;;4.90;;
70908;SDS011;58554;52.006;5.926;2023-05-19T03:08:29;10.48;;;5.47;;
70908;SDS011;58554;52.006;5.926;2023-05-19T03:10:58;7.30;;;4.50;;
70908;SDS011;58554;52.006;5.926;2023-05-19T03:13:24;11.23;;;5.22;;
70908;SDS011;58554;52.006;5.926;2023-05-19T03:15:51;10.25;;;4.63;;
70908;SDS011;58554;52.006;5.926;2023-05-19T03:18:17;8.85;;;4.68;;
70908;SDS011;58554;52.006;5.926;2023-05-19T03:20:44;10.35;;;4.75;;
70908;SDS011;58554;52.006;5.926;2023-05-19T03:23:10;12.50;;;5.07;;
70908;SDS011;58554;52.006;5.926;2023-05-19T03:25:36;8.70;;;4.97;;
70908;SDS011;58554;52.006;5.926;2023-05-19T03:28:06;9.93;;;4.83;;
70908;SDS011;58554;52.006;5.926;2023-05-19T03:30:32;8.82;;;5.03;;
70908;SDS011;58554;52.006;5.926;2023-05-19T03:32:59;10.52;;;5.25;;
70908;SDS011;58554;52.006;5.926;2023-05-19T03:35:25;10.97;;;5.30;;
70908;SDS011;58554;52.006;5.926;2023-05-19T03:37:52;10.93;;;4.93;;
70908;SDS011;58554;52.006;5.926;2023-05-19T03:40:18;9.97;;;5.20;;
70908;SDS011;58554;52.006;5.926;2023-05-19T03:42:45;10.67;;;5.17;;
70908;SDS011;58554;52.006;5.926;2023-05-19T03:45:14;9.95;;;5.20;;
70908;SDS011;58554;52.006;5.926;2023-05-19T03:47:41;12.07;;;5.20;;
70908;SDS011;58554;52.006;5.926;2023-05-19T03:50:07;9.53;;;4.73;;
70908;SDS011;58554;52.006;5.926;2023-05-19T03:52:35;8.90;;;4.80;;
70908;SDS011;58554;52.006;5.926;2023-05-19T03:55:02;11.70;;;5.10;;
70908;SDS011;58554;52.006;5.926;2023-05-19T03:57:29;10.43;;;5.00;;
70908;SDS011;58554;52.006;5.926;2023-05-19T03:59:55;11.17;;;5.30;;
70908;SDS011;58554;52.006;5.926;2023-05-19T04:02:24;10.63;;;5.00;;
70908;SDS011;58554;52.006;5.926;2023-05-19T04:04:51;11.88;;;4.88;;
70908;SDS011;58554;52.006;5.926;2023-05-19T04:07:17;9.27;;;4.87;;
70908;SDS011;58554;52.006;5.926;2023-05-19T04:09:44;10.37;;;5.40;;
70908;SDS011;58554;52.006;5.926;2023-05-19T04:12:10;10.13;;;5.37;;
70908;SDS011;58554;52.006;5.926;2023-05-19T04:14:36;12.50;;;5.07;;
70908;SDS011;58554;52.006;5.926;2023-05-19T04:17:03;13.75;;;5.30;;
70908;SDS011;58554;52.006;5.926;2023-05-19T04:19:33;10.20;;;5.18;;
70908;SDS011;58554;52.006;5.926;2023-05-19T04:21:59;9.97;;;5.23;;
70908;SDS011;58554;52.006;5.926;2023-05-19T04:24:25;12.27;;;5.57;;
70908;SDS011;58554;52.006;5.926;2023-05-19T04:26:52;9.07;;;5.03;;
70908;SDS011;58554;52.006;5.926;2023-05-19T04:29:18;10.43;;;5.07;;
70908;SDS011;58554;52.006;5.926;2023-05-19T04:31:45;11.13;;;5.68;;
70908;SDS011;58554;52.006;5.926;2023-05-19T04:34:11;9.37;;;5.00;;
70908;SDS011;58554;52.006;5.926;2023-05-19T04:36:40;11.88;;;5.35;;
70908;SDS011;58554;52.006;5.926;2023-05-19T04:39:07;11.87;;;5.40;;
70908;SDS011;58554;52.006;5.926;2023-05-19T04:41:33;14.35;;;5.50;;
70908;SDS011;58554;52.006;5.926;2023-05-19T04:44:00;11.85;;;5.60;;
70908;SDS011;58554;52.006;5.926;2023-05-19T04:46:27;9.33;;;4.70;;
70908;SDS011;58554;52.006;5.926;2023-05-19T04:48:53;10.70;;;5.30;;
70908;SDS011;58554;52.006;5.926;2023-05-19T04:51:19;12.80;;;5.70;;
70908;SDS011;58554;52.006;5.926;2023-05-19T04:53:48;12.02;;;5.68;;
70908;SDS011;58554;52.006;5.926;2023-05-19T04:56:15;11.80;;;4.67;;
70908;SDS011;58554;52.006;5.926;2023-05-19T04:58:41;10.97;;;5.63;;
70908;SDS011;58554;52.006;5.926;2023-05-19T05:01:08;10.57;;;5.22;;
70908;SDS011;58554;52.006;5.926;2023-05-19T05:03:34;10.90;;;5.15;;
70908;SDS011;58554;52.006;5.926;2023-05-19T05:06:01;10.00;;;4.67;;
70908;SDS011;58554;52.006;5.926;2023-05-19T05:08:28;9.77;;;5.10;;
70908;SDS011;58554;52.006;5.926;2023-05-19T05:10:57;10.30;;;5.18;;
70908;SDS011;58554;52.006;5.926;2023-05-19T05:13:25;10.43;;;5.25;;
70908;SDS011;58554;52.006;5.926;2023-05-19T05:15:54;14.57;;;5.70;;
70908;SDS011;58554;52.006;5.926;2023-05-19T05:18:21;12.70;;;4.97;;
70908;SDS011;58554;52.006;5.926;2023-05-19T05:20:49;9.63;;;4.95;;
70908;SDS011;58554;52.006;5.926;2023-05-19T05:23:18;9.27;;;4.60;;
70908;SDS011;58554;52.006;5.926;2023-05-19T05:25:45;11.10;;;5.30;;
70908;SDS011;58554;52.006;5.926;2023-05-19T05:28:16;9.90;;;4.93;;
70908;SDS011;58554;52.006;5.926;2023-05-19T05:30:42;12.43;;;5.20;;
70908;SDS011;58554;52.006;5.926;2023-05-19T05:33:09;9.40;;;5.03;;
70908;SDS011;58554;52.006;5.926;2023-05-19T05:35:36;10.73;;;4.80;;
70908;SDS011;58554;52.006;5.926;2023-05-19T05:38:03;12.30;;;5.30;;
70908;SDS011;58554;52.006;5.926;2023-05-19T05:40:29;13.50;;;5.03;;
70908;SDS011;58554;52.006;5.926;2023-05-19T05:42:56;8.87;;;5.00;;
70908;SDS011;58554;52.006;5.926;2023-05-19T05:45:25;14.35;;;5.07;;
70908;SDS011;58554;52.006;5.926;2023-05-19T05:47:51;10.37;;;5.00;;
70908;SDS011;58554;52.006;5.926;2023-05-19T05:50:20;10.35;;;5.38;;
70908;SDS011;58554;52.006;5.926;2023-05-19T05:52:47;10.43;;;5.23;;
70908;SDS011;58554;52.006;5.926;2023-05-19T05:55:17;11.80;;;5.07;;
70908;SDS011;58554;52.006;5.926;2023-05-19T05:57:45;10.83;;;5.10;;
70908;SDS011;58554;52.006;5.926;2023-05-19T06:00:12;12.90;;;5.17;;
70908;SDS011;58554;52.006;5.926;2023-05-19T06:02:43;9.32;;;4.88;;
70908;SDS011;58554;52.006;5.926;2023-05-19T06:05:11;10.80;;;4.93;;
70908;SDS011;58554;52.006;5.926;2023-05-19T06:07:37;9.77;;;4.93;;
70908;SDS011;58554;52.006;5.926;2023-05-19T06:10:05;12.90;;;4.60;;
70908;SDS011;58554;52.006;5.926;2023-05-19T06:12:33;9.15;;;4.75;;
70908;SDS011;58554;52.006;5.926;2023-05-19T06:15:00;8.80;;;4.50;;
70908;SDS011;58554;52.006;5.926;2023-05-19T06:17:27;8.43;;;4.40;;
70908;SDS011;58554;52.006;5.926;2023-05-19T06:19:56;8.55;;;4.32;;
70908;SDS011;58554;52.006;5.926;2023-05-19T06:22:23;11.50;;;4.33;;
70908;SDS011;58554;52.006;5.926;2023-05-19T06:24:49;9.37;;;4.70;;
70908;SDS011;58554;52.006;5.926;2023-05-19T06:27:16;10.40;;;4.43;;
70908;SDS011;58554;52.006;5.926;2023-05-19T06:29:42;8.70;;;3.90;;
70908;SDS011;58554;52.006;5.926;2023-05-19T06:32:09;9.30;;;4.60;;
70908;SDS011;58554;52.006;5.926;2023-05-19T06:34:35;7.67;;;3.53;;
70908;SDS011;58554;52.006;5.926;2023-05-19T06:37:04;9.17;;;4.27;;
70908;SDS011;58554;52.006;5.926;2023-05-19T06:39:31;11.33;;;3.80;;
70908;SDS011;58554;52.006;5.926;2023-05-19T06:41:57;6.90;;;3.90;;
70908;SDS011;58554;52.006;5.926;2023-05-19T06:44:24;6.20;;;3.43;;
70908;SDS011;58554;52.006;5.926;2023-05-19T06:46:50;6.82;;;3.60;;
70908;SDS011;58554;52.006;5.926;2023-05-19T06:49:17;7.18;;;3.15;;
70908;SDS011;58554;52.006;5.926;2023-05-19T06:51:43;6.00;;;3.05;;
70908;SDS011;58554;52.006;5.926;2023-05-19T06:54:12;9.43;;;3.40;;
70908;SDS011;58554;52.006;5.926;2023-05-19T06:56:39;6.87;;;3.10;;
70908;SDS011;58554;52.006;5.926;2023-05-19T06:59:05;6.47;;;2.97;;
70908;SDS011;58554;52.006;5.926;2023-05-19T07:01:32;7.70;;;3.13;;
70908;SDS011;58554;52.006;5.926;2023-05-19T07:03:58;6.15;;;2.92;;
70908;SDS011;58554;52.006;5.926;2023-05-19T07:06:25;7.03;;;3.03;;
70908;SDS011;58554;52.006;5.926;2023-05-19T07:08:51;6.25;;;3.00;;
70908;SDS011;58554;52.006;5.926;2023-05-19T07:11:20;5.40;;;2.90;;
70908;SDS011;58554;52.006;5.926;2023-05-19T07:13:47;7.67;;;3.03;;
70908;SDS011;58554;52.006;5.926;2023-05-19T07:16:13;5.20;;;2.90;;
70908;SDS011;58554;52.006;5.926;2023-05-19T07:18:40;5.38;;;3.05;;
70908;SDS011;58554;52.006;5.926;2023-05-19T07:21:06;5.83;;;2.97;;
70908;SDS011;58554;52.006;5.926;2023-05-19T07:23:32;8.02;;;3.00;;
70908;SDS011;58554;52.006;5.926;2023-05-19T07:25:59;5.10;;;2.83;;
70908;SDS011;58554;52.006;5.926;2023-05-19T07:28:28;5.78;;;2.72;;
70908;SDS011;58554;52.006;5.926;2023-05-19T07:30:55;6.22;;;3.05;;
70908;SDS011;58554;52.006;5.926;2023-05-19T07:33:21;9.80;;;2.90;;
70908;SDS011;58554;52.006;5.926;2023-05-19T07:35:48;5.53;;;2.90;;
70908;SDS011;58554;52.006;5.926;2023-05-19T07:38:14;8.07;;;2.95;;
70908;SDS011;58554;52.006;5.926;2023-05-19T07:40:40;7.13;;;3.50;;
70908;SDS011;58554;52.006;5.926;2023-05-19T07:43:07;5.07;;;2.80;;
70908;SDS011;58554;52.006;5.926;2023-05-19T07:45:36;6.47;;;3.10;;
70908;SDS011;58554;52.006;5.926;2023-05-19T07:48:03;6.45;;;2.83;;
70908;SDS011;58554;52.006;5.926;2023-05-19T07:50:30;5.23;;;3.00;;
70908;SDS011;58554;52.006;5.926;2023-05-19T07:52:57;6.23;;;3.00;;
70908;SDS011;58554;52.006;5.926;2023-05-19T07:55:23;5.83;;;2.93;;
70908;SDS011;58554;52.006;5.926;2023-05-19T07:57:50;6.37;;;3.17;;
70908;SDS011;58554;52.006;5.926;2023-05-19T08:00:17;8.35;;;3.03;;
70908;SDS011;58554;52.006;5.926;2023-05-19T08:02:46;5.20;;;2.25;;
70908;SDS011;58554;52.006;5.926;2023-05-19T08:05:12;7.37;;;2.87;;
70908;SDS011;58554;52.006;5.926;2023-05-19T08:07:39;3.90;;;2.70;;
70908;SDS011;58554;52.006;5.926;2023-05-19T08:10:06;6.97;;;2.97;;
70908;SDS011;58554;52.006;5.926;2023-05-19T08:12:34;5.63;;;2.80;;
70908;SDS011;58554;52.006;5.926;2023-05-19T08:15:00;6.90;;;2.90;;
70908;SDS011;58554;52.006;5.926;2023-05-19T08:17:27;7.03;;;2.80;;
70908;SDS011;58554;52.006;5.926;2023-05-19T08:19:56;6.10;;;2.63;;
70908;SDS011;58554;52.006;5.926;2023-05-19T08:22:22;4.70;;;2.63;;
70908;SDS011;58554;52.006;5.926;2023-05-19T08:24:49;8.43;;;3.00;;
70908;SDS011;58554;52.006;5.926;2023-05-19T08:27:15;7.47;;;2.83;;
70908;SDS011;58554;52.006;5.926;2023-05-19T08:29:41;5.50;;;2.57;;
70908;SDS011;58554;52.006;5.926;2023-05-19T08:32:08;6.53;;;2.60;;
70908;SDS011;58554;52.006;5.926;2023-05-19T08:34:35;4.70;;;2.58;;
70908;SDS011;58554;52.006;5.926;2023-05-19T08:37:04;4.90;;;2.40;;
70908;SDS011;58554;52.006;5.926;2023-05-19T08:39:30;5.93;;;2.80;;
70908;SDS011;58554;52.006;5.926;2023-05-19T08:41:57;6.03;;;2.60;;
70908;SDS011;58554;52.006;5.926;2023-05-19T08:44:23;5.17;;;2.70;;
70908;SDS011;58554;52.006;5.926;2023-05-19T08:46:50;5.93;;;2.70;;
70908;SDS011;58554;52.006;5.926;2023-05-19T08:49:22;5.80;;;2.70;;
70908;SDS011;58554;52.006;5.926;2023-05-19T08:51:54;5.45;;;2.50;;
70908;SDS011;58554;52.006;5.926;2023-05-19T08:54:36;5.13;;;2.47;;
70908;SDS011;58554;52.006;5.926;2023-05-19T08:57:11;5.30;;;2.17;;
70908;SDS011;58554;52.006;5.926;2023-05-19T08:59:39;5.23;;;2.47;;
70908;SDS011;58554;52.006;5.926;2023-05-19T09:02:08;7.03;;;2.90;;
70908;SDS011;58554;52.006;5.926;2023-05-19T09:04:39;6.70;;;2.90;;
70908;SDS011;58554;52.006;5.926;2023-05-19T09:07:09;4.40;;;2.50;;
70908;SDS011;58554;52.006;5.926;2023-05-19T09:09:35;4.93;;;2.77;;
70908;SDS011;58554;52.006;5.926;2023-05-19T09:12:02;5.93;;;2.95;;
70908;SDS011;58554;52.006;5.926;2023-05-19T09:14:29;6.97;;;2.65;;
70908;SDS011;58554;52.006;5.926;2023-05-19T09:16:57;4.50;;;2.65;;
70908;SDS011;58554;52.006;5.926;2023-05-19T09:19:24;5.37;;;2.60;;
70908;SDS011;58554;52.006;5.926;2023-05-19T09:21:56;4.53;;;2.38;;
70908;SDS011;58554;52.006;5.926;2023-05-19T09:24:26;5.15;;;2.70;;
70908;SDS011;58554;52.006;5.926;2023-05-19T09:26:54;5.45;;;3.20;;
70908;SDS011;58554;52.006;5.926;2023-05-19T09:29:21;5.97;;;2.97;;
70908;SDS011;58554;52.006;5.926;2023-05-19T09:31:49;5.30;;;2.93;;
70908;SDS011;58554;52.006;5.926;2023-05-19T09:34:17;3.60;;;2.45;;
70908;SDS011;58554;52.006;5.926;2023-05-19T09:36:45;4.97;;;2.73;;
70908;SDS011;58554;52.006;5.926;2023-05-19T09:39:12;6.97;;;3.10;;
70908;SDS011;58554;52.006;5.926;2023-05-19T09:41:43;6.70;;;2.70;;
70908;SDS011;58554;52.006;5.926;2023-05-19T09:44:20;6.40;;;2.87;;
70908;SDS011;58554;52.006;5.926;2023-05-19T09:46:48;6.07;;;2.67;;
70908;SDS011;58554;52.006;5.926;2023-05-19T09:49:18;3.93;;;2.20;;
70908;SDS011;58554;52.006;5.926;2023-05-19T09:51:47;6.90;;;2.65;;
70908;SDS011;58554;52.006;5.926;2023-05-19T09:54:16;5.70;;;2.50;;
70908;SDS011;58554;52.006;5.926;2023-05-19T09:56:47;4.37;;;2.70;;
70908;SDS011;58554;52.006;5.926;2023-05-19T09:59:22;4.55;;;2.45;;
70908;SDS011;58554;52.006;5.926;2023-05-19T10:01:49;5.57;;;2.97;;
70908;SDS011;58554;52.006;5.926;2023-05-19T10:04:19;5.23;;;2.60;;
70908;SDS011;58554;52.006;5.926;2023-05-19T10:06:47;5.00;;;2.97;;
70908;SDS011;58554;52.006;5.926;2023-05-19T10:09:15;4.63;;;2.27;;
70908;SDS011;58554;52.006;5.926;2023-05-19T10:11:42;5.43;;;2.50;;
70908;SDS011;58554;52.006;5.926;2023-05-19T10:14:12;4.47;;;2.50;;
70908;SDS011;58554;52.006;5.926;2023-05-19T10:16:40;5.17;;;3.10;;
70908;SDS011;58554;52.006;5.926;2023-05-19T10:19:07;4.45;;;2.45;;
70908;SDS011;58554;52.006;5.926;2023-05-19T10:21:36;6.07;;;2.60;;
70908;SDS011;58554;52.006;5.926;2023-05-19T10:24:02;5.30;;;2.80;;
70908;SDS011;58554;52.006;5.926;2023-05-19T10:26:29;5.05;;;2.80;;
70908;SDS011;58554;52.006;5.926;2023-05-19T10:28:56;5.90;;;2.87;;
70908;SDS011;58554;52.006;5.926;2023-05-19T10:31:26;5.93;;;2.88;;
70908;SDS011;58554;52.006;5.926;2023-05-19T10:33:58;5.28;;;2.60;;
70908;SDS011;58554;52.006;5.926;2023-05-19T10:36:46;6.13;;;2.80;;
70908;SDS011;58554;52.006;5.926;2023-05-19T10:39:20;4.43;;;2.80;;
70908;SDS011;58554;52.006;5.926;2023-05-19T10:41:55;4.22;;;2.70;;
70908;SDS011;58554;52.006;5.926;2023-05-19T10:44:39;4.50;;;2.80;;
70908;SDS011;58554;52.006;5.926;2023-05-19T10:47:25;5.83;;;2.53;;
70908;SDS011;58554;52.006;5.926;2023-05-19T10:49:52;5.32;;;2.58;;
70908;SDS011;58554;52.006;5.926;2023-05-19T10:52:19;6.90;;;2.50;;
70908;SDS011;58554;52.006;5.926;2023-05-19T10:54:47;7.50;;;2.90;;
70908;SDS011;58554;52.006;5.926;2023-05-19T10:57:14;4.43;;;2.92;;
70908;SDS011;58554;52.006;5.926;2023-05-19T10:59:40;6.80;;;2.80;;
70908;SDS011;58554;52.006;5.926;2023-05-19T11:02:08;6.87;;;3.20;;
70908;SDS011;58554;52.006;5.926;2023-05-19T11:04:44;6.00;;;2.65;;
70908;SDS011;58554;52.006;5.926;2023-05-19T11:07:14;5.37;;;2.80;;
70908;SDS011;58554;52.006;5.926;2023-05-19T11:09:42;6.63;;;2.83;;
70908;SDS011;58554;52.006;5.926;2023-05-19T11:12:16;5.43;;;2.55;;
70908;SDS011;58554;52.006;5.926;2023-05-19T11:14:45;6.73;;;2.83;;
70908;SDS011;58554;52.006;5.926;2023-05-19T11:17:13;4.40;;;2.70;;
70908;SDS011;58554;52.006;5.926;2023-05-19T11:19:50;7.17;;;2.50;;
70908;SDS011;58554;52.006;5.926;2023-05-19T11:22:21;6.15;;;2.90;;
70908;SDS011;58554;52.006;5.926;2023-05-19T11:24:50;5.20;;;2.80;;
70908;SDS011;58554;52.006;5.926;2023-05-19T11:27:20;7.23;;;3.03;;
70908;SDS011;58554;52.006;5.926;2023-05-19T11:29:50;7.40;;;3.17;;
70908;SDS011;58554;52.006;5.926;2023-05-19T11:32:19;4.97;;;2.53;;
70908;SDS011;58554;52.006;5.926;2023-05-19T11:34:49;6.78;;;2.83;;
70908;SDS011;58554;52.006;5.926;2023-05-19T11:37:17;6.83;;;3.10;;
70908;SDS011;58554;52.006;5.926;2023-05-19T11:39:44;4.20;;;2.40;;
70908;SDS011;58554;52.006;5.926;2023-05-19T11:42:11;4.13;;;2.53;;
70908;SDS011;58554;52.006;5.926;2023-05-19T11:44:38;5.50;;;3.00;;
70908;SDS011;58554;52.006;5.926;2023-05-19T11:47:05;7.45;;;2.70;;
70908;SDS011;58554;52.006;5.926;2023-05-19T11:49:32;6.25;;;2.95;;
70908;SDS011;58554;52.006;5.926;2023-05-19T11:52:01;5.93;;;2.70;;
70908;SDS011;58554;52.006;5.926;2023-05-19T11:54:29;6.15;;;3.10;;
70908;SDS011;58554;52.006;5.926;2023-05-19T11:56:58;6.63;;;3.03;;
70908;SDS011;58554;52.006;5.926;2023-05-19T11:59:29;7.87;;;2.97;;
70908;SDS011;58554;52.006;5.926;2023-05-19T12:01:59;5.77;;;3.00;;
70908;SDS011;58554;52.006;5.926;2023-05-19T12:04:27;6.43;;;3.20;;
70908;SDS011;58554;52.006;5.926;2023-05-19T12:06:54;4.67;;;3.00;;
70908;SDS011;58554;52.006;5.926;2023-05-19T12:09:23;6.53;;;3.10;;
70908;SDS011;58554;52.006;5.926;2023-05-19T12:11:52;5.53;;;3.05;;
70908;SDS011;58554;52.006;5.926;2023-05-19T12:14:20;5.93;;;3.20;;
70908;SDS011;58554;52.006;5.926;2023-05-19T12:16:46;4.60;;;3.05;;
70908;SDS011;58554;52.006;5.926;2023-05-19T12:19:13;6.80;;;3.05;;
70908;SDS011;58554;52.006;5.926;2023-05-19T12:21:39;7.10;;;3.08;;
70908;SDS011;58554;52.006;5.926;2023-05-19T12:24:07;4.97;;;3.28;;
70908;SDS011;58554;52.006;5.926;2023-05-19T12:26:37;4.93;;;3.20;;
70908;SDS011;58554;52.006;5.926;2023-05-19T12:29:04;5.57;;;3.10;;
70908;SDS011;58554;52.006;5.926;2023-05-19T12:31:31;5.60;;;3.25;;
70908;SDS011;58554;52.006;5.926;2023-05-19T12:33:59;6.13;;;2.97;;
70908;SDS011;58554;52.006;5.926;2023-05-19T12:36:26;5.85;;;3.30;;
70908;SDS011;58554;52.006;5.926;2023-05-19T12:38:53;6.22;;;3.03;;
70908;SDS011;58554;52.006;5.926;2023-05-19T12:41:19;7.23;;;3.53;;
70908;SDS011;58554;52.006;5.926;2023-05-19T12:43:49;6.22;;;3.30;;
70908;SDS011;58554;52.006;5.926;2023-05-19T12:46:17;6.90;;;3.33;;
70908;SDS011;58554;52.006;5.926;2023-05-19T12:48:44;6.50;;;3.20;;
70908;SDS011;58554;52.006;5.926;2023-05-19T12:51:14;6.40;;;3.40;;
70908;SDS011;58554;52.006;5.926;2023-05-19T12:53:42;6.00;;;3.40;;
70908;SDS011;58554;52.006;5.926;2023-05-19T12:56:09;5.95;;;3.35;;
70908;SDS011;58554;52.006;5.926;2023-05-19T12:58:37;8.30;;;3.80;;
70908;SDS011;58554;52.006;5.926;2023-05-19T13:01:06;5.83;;;3.27;;
70908;SDS011;58554;52.006;5.926;2023-05-19T13:03:41;5.20;;;3.50;;
70908;SDS011;58554;52.006;5.926;2023-05-19T13:06:08;4.90;;;3.50;;
70908;SDS011;58554;52.006;5.926;2023-05-19T13:08:35;6.67;;;3.93;;
70908;SDS011;58554;52.006;5.926;2023-05-19T13:11:03;5.60;;;3.17;;
70908;SDS011;58554;52.006;5.926;2023-05-19T13:13:30;8.65;;;3.33;;
70908;SDS011;58554;52.006;5.926;2023-05-19T13:15:58;5.70;;;3.42;;
70908;SDS011;58554;52.006;5.926;2023-05-19T13:18:27;8.63;;;3.97;;
70908;SDS011;58554;52.006;5.926;2023-05-19T13:20:53;8.32;;;3.75;;
70908;SDS011;58554;52.006;5.926;2023-05-19T13:23:20;6.43;;;3.75;;
70908;SDS011;58554;52.006;5.926;2023-05-19T13:25:46;5.32;;;3.05;;
70908;SDS011;58554;52.006;5.926;2023-05-19T13:28:14;6.35;;;3.10;;
70908;SDS011;58554;52.006;5.926;2023-05-19T13:30:41;6.30;;;3.50;;
70908;SDS011;58554;52.006;5.926;2023-05-19T13:33:08;6.27;;;3.47;;
70908;SDS011;58554;52.006;5.926;2023-05-19T13:35:38;4.88;;;3.28;;
70908;SDS011;58554;52.006;5.926;2023-05-19T13:38:05;5.20;;;2.90;;
70908;SDS011;58554;52.006;5.926;2023-05-19T13:40:33;6.03;;;2.93;;
70908;SDS011;58554;52.006;5.926;2023-05-19T13:43:00;8.43;;;3.60;;
70908;SDS011;58554;52.006;5.926;2023-05-19T13:45:27;5.00;;;3.10;;
70908;SDS011;58554;52.006;5.926;2023-05-19T13:47:53;6.50;;;3.13;;
70908;SDS011;58554;52.006;5.926;2023-05-19T13:50:20;6.73;;;3.30;;
70908;SDS011;58554;52.006;5.926;2023-05-19T13:52:49;7.73;;;3.10;;
70908;SDS011;58554;52.006;5.926;2023-05-19T13:55:15;5.65;;;3.17;;
70908;SDS011;58554;52.006;5.926;2023-05-19T13:57:42;4.83;;;3.03;;
70908;SDS011;58554;52.006;5.926;2023-05-19T14:00:09;6.53;;;3.20;;
70908;SDS011;58554;52.006;5.926;2023-05-19T14:02:38;4.80;;;3.07;;
70908;SDS011;58554;52.006;5.926;2023-05-19T14:05:05;4.53;;;2.80;;
70908;SDS011;58554;52.006;5.926;2023-05-19T14:07:33;4.68;;;2.58;;
70908;SDS011;58554;52.006;5.926;2023-05-19T14:10:03;7.45;;;2.83;;
70908;SDS011;58554;52.006;5.926;2023-05-19T14:12:31;5.35;;;3.10;;
70908;SDS011;58554;52.006;5.926;2023-05-19T14:14:59;5.93;;;3.27;;
70908;SDS011;58554;52.006;5.926;2023-05-19T14:17:25;5.13;;;3.00;;
70908;SDS011;58554;52.006;5.926;2023-05-19T14:19:52;6.20;;;3.00;;
70908;SDS011;58554;52.006;5.926;2023-05-19T14:22:19;5.60;;;2.87;;
70908;SDS011;58554;52.006;5.926;2023-05-19T14:24:45;5.20;;;2.87;;
70908;SDS011;58554;52.006;5.926;2023-05-19T14:27:14;5.40;;;2.83;;
70908;SDS011;58554;52.006;5.926;2023-05-19T14:29:41;4.53;;;2.97;;
70908;SDS011;58554;52.006;5.926;2023-05-19T14:32:07;5.33;;;3.63;;
70908;SDS011;58554;52.006;5.926;2023-05-19T14:34:34;5.85;;;2.90;;
70908;SDS011;58554;52.006;5.926;2023-05-19T14:37:00;5.77;;;3.20;;
70908;SDS011;58554;52.006;5.926;2023-05-19T14:39:28;5.75;;;3.20;;
70908;SDS011;58554;52.006;5.926;2023-05-19T14:41:55;5.13;;;2.90;;
70908;SDS011;58554;52.006;5.926;2023-05-19T14:44:25;4.75;;;2.78;;
70908;SDS011;58554;52.006;5.926;2023-05-19T14:46:55;4.25;;;3.00;;
70908;SDS011;58554;52.006;5.926;2023-05-19T14:49:22;6.78;;;3.33;;
70908;SDS011;58554;52.006;5.926;2023-05-19T14:51:48;7.30;;;3.30;;
70908;SDS011;58554;52.006;5.926;2023-05-19T14:54:15;6.07;;;3.20;;